Time;durP1;ratioP1;P1;durP2;ratioP2;P2;SDS_P1;SDS_P2;PMS_P1;PMS_P2;Temp;Humidity;BMP_temperature;BMP_pressure;BME280_temperature;BME280_humidity;BME280_pressure;Samples;Min_cycle;Max_cycle;Signal;HPM_P1;HPM_P2
2021/12/13 00:01:10;;;;;;;2.67;2.47;;;;;;;-0.23;71.68;94911.69;4914574;29;20361;-63
2021/12/13 00:04:04;;;;;;;2.70;2.50;;;;;;;-0.28;71.57;94910.28;4928091;29;20225;-65
2021/12/13 00:06:35;;;;;;;2.83;2.63;;;;;;;-0.25;71.24;94921.25;4927646;29;20229;-67
2021/12/13 00:09:05;;;;;;;2.70;2.50;;;;;;;-0.16;71.12;94922.50;4924376;29;20225;-65
2021/12/13 00:11:34;;;;;;;2.60;2.40;;;;;;;-0.10;70.49;94919.56;4939188;29;20222;-64
2021/12/13 00:14:07;;;;;;;2.90;2.60;;;;;;;-0.02;70.37;94921.69;4945250;29;20209;-65
2021/12/13 00:16:43;;;;;;;2.50;2.30;;;;;;;-0.15;69.96;94929.31;4925029;29;20232;-63
2021/12/13 00:19:16;;;;;;;2.20;2.10;;;;;;;-0.08;70.04;94930.66;4941509;29;20277;-62
2021/12/13 00:21:46;;;;;;;2.13;1.93;;;;;;;-0.16;69.59;94930.25;4937015;29;20245;-64
2021/12/13 00:24:34;;;;;;;2.50;2.30;;;;;;;-0.15;70.27;94926.75;4926815;29;20409;-63
2021/12/13 00:27:07;;;;;;;2.63;2.43;;;;;;;-0.10;69.99;94929.91;4940245;29;20292;-66
2021/12/13 00:29:54;;;;;;;2.33;2.17;;;;;;;-0.11;69.90;94928.22;4963711;28;20218;-62
2021/12/13 00:32:28;;;;;;;2.60;2.40;;;;;;;-0.11;69.54;94922.22;5036937;28;20202;-62
2021/12/13 00:34:57;;;;;;;2.03;1.93;;;;;;;-0.11;69.35;94919.63;5032574;28;20218;-63
2021/12/13 00:37:37;;;;;;;2.70;2.50;;;;;;;-0.19;69.43;94914.09;5035940;28;20229;-62
2021/12/13 00:40:15;;;;;;;2.30;2.10;;;;;;;-0.11;69.38;94917.88;5034604;28;20248;-62
2021/12/13 00:42:46;;;;;;;1.93;1.83;;;;;;;-0.14;69.40;94923.22;5037460;28;20213;-64
2021/12/13 00:45:13;;;;;;;1.90;1.80;;;;;;;-0.14;68.76;94912.88;5033156;28;20324;-66
2021/12/13 00:47:42;;;;;;;2.47;2.27;;;;;;;-0.07;68.65;94919.38;5033856;28;20203;-66
2021/12/13 00:50:13;;;;;;;2.03;1.83;;;;;;;0.03;67.68;94921.41;5038426;28;20224;-65
2021/12/13 00:52:43;;;;;;;2.40;2.20;;;;;;;-0.06;68.47;94920.19;5031696;28;20237;-64
2021/12/13 00:55:16;;;;;;;2.10;1.90;;;;;;;-0.12;68.25;94915.41;5035029;28;20218;-63
2021/12/13 00:57:44;;;;;;;2.13;1.93;;;;;;;-0.07;68.14;94924.53;5038884;28;20236;-62
2021/12/13 01:00:10;;;;;;;2.13;1.93;;;;;;;0.02;67.48;94920.56;5037031;28;20226;-65
2021/12/13 01:02:54;;;;;;;1.80;1.70;;;;;;;-0.03;67.54;94914.84;5035752;28;20215;-67
2021/12/13 01:05:49;;;;;;;2.13;2.03;;;;;;;-0.08;68.07;94915.13;5039080;28;20273;-64
2021/12/13 01:08:56;;;;;;;2.00;1.90;;;;;;;-0.01;67.70;94919.00;5049803;28;20236;-64
2021/12/13 01:11:57;;;;;;;2.47;2.27;;;;;;;-0.04;67.86;94914.00;5051062;28;20253;-63
2021/12/13 01:14:28;;;;;;;2.10;2.00;;;;;;;0.04;67.97;94917.91;5035082;28;20257;-64
2021/12/13 01:17:11;;;;;;;2.27;2.07;;;;;;;-0.01;67.85;94907.84;5037335;28;20210;-64
2021/12/13 01:19:51;;;;;;;2.20;2.00;;;;;;;-0.01;67.65;94905.25;5038416;28;20217;-65
2021/12/13 01:22:49;;;;;;;2.60;2.40;;;;;;;-0.07;67.67;94911.63;5039835;28;20217;-63
2021/12/13 01:25:46;;;;;;;1.80;1.70;;;;;;;0.04;67.36;94908.41;5038570;28;20241;-65
2021/12/13 01:28:38;;;;;;;2.00;1.90;;;;;;;-0.05;67.70;94912.38;5034677;28;20233;-67
2021/12/13 01:31:12;;;;;;;2.20;2.10;;;;;;;-0.01;67.95;94913.84;5036180;28;20228;-64
2021/12/13 01:33:41;;;;;;;2.10;2.00;;;;;;;0.08;67.28;94914.22;5048941;28;20229;-64
2021/12/13 01:36:11;;;;;;;2.47;2.27;;;;;;;0.00;67.97;94919.84;5030110;28;20294;-65
2021/12/13 01:38:45;;;;;;;2.30;2.10;;;;;;;-0.14;68.15;94901.72;5038177;28;20206;-65
2021/12/13 01:41:34;;;;;;;2.13;1.93;;;;;;;-0.03;68.67;94920.88;5038835;28;20281;-64
2021/12/13 01:44:22;;;;;;;2.70;2.50;;;;;;;0.03;68.58;94924.00;5038256;28;20205;-65
2021/12/13 01:46:52;;;;;;;2.37;2.20;;;;;;;-0.05;68.36;94912.38;5033796;28;20258;-67
2021/12/13 01:49:19;;;;;;;2.60;1.97;;;;;;;-0.02;68.25;94911.34;5037439;28;20229;-64
2021/12/13 01:51:47;;;;;;;2.00;1.90;;;;;;;-0.04;68.35;94924.34;5042087;28;20218;-64
2021/12/13 01:54:20;;;;;;;2.00;1.67;;;;;;;-0.04;68.58;94920.94;5039762;28;20236;-66
2021/12/13 01:56:59;;;;;;;2.43;2.23;;;;;;;-0.08;68.77;94917.72;5038086;28;20221;-64
2021/12/13 02:02:14;;;;;;;2.40;2.20;;;;;;;-0.05;69.68;94912.38;5041935;28;20223;-65
2021/12/13 02:04:42;;;;;;;2.70;2.50;;;;;;;-0.11;70.22;94910.13;5035472;28;20230;-63
2021/12/13 02:07:08;;;;;;;2.37;2.17;;;;;;;-0.05;70.86;94911.53;5033620;28;20276;-64
2021/12/13 02:09:40;;;;;;;2.50;2.30;;;;;;;-0.25;71.36;94910.94;5034905;28;20230;-62
2021/12/13 02:12:15;;;;;;;2.13;2.03;;;;;;;-0.25;71.88;94913.50;5033169;28;20225;-65
2021/12/13 02:14:48;;;;;;;2.53;2.33;;;;;;;-0.20;72.24;94902.91;5038675;28;20280;-66
2021/12/13 02:17:22;;;;;;;2.37;2.20;;;;;;;-0.22;72.28;94915.09;5036994;28;20224;-62
2021/12/13 02:20:06;;;;;;;1.97;1.87;;;;;;;-0.21;72.54;94911.59;5050897;28;20244;-63
2021/12/13 02:22:39;;;;;;;2.60;2.40;;;;;;;-0.28;72.66;94905.13;5040711;28;20301;-65
2021/12/13 02:25:29;;;;;;;2.27;2.13;;;;;;;-0.25;72.82;94900.59;5036714;28;20218;-65
2021/12/13 02:28:07;;;;;;;2.23;2.03;;;;;;;-0.38;72.79;94894.47;5053559;28;20250;-62
2021/12/13 02:30:43;;;;;;;2.40;2.20;;;;;;;-0.36;73.06;94897.81;5039539;28;20505;-64
2021/12/13 02:33:14;;;;;;;3.10;2.83;;;;;;;-0.39;72.91;94907.50;5038183;28;20233;-65
2021/12/13 02:35:56;;;;;;;2.60;2.40;;;;;;;-0.29;73.11;94904.28;5044362;28;20229;-63
2021/12/13 02:38:23;;;;;;;2.50;2.30;;;;;;;-0.27;72.29;94914.53;5032829;28;20236;-64
2021/12/13 02:40:49;;;;;;;2.27;2.17;;;;;;;-0.39;73.01;94908.31;5035153;28;20230;-64
2021/12/13 02:43:18;;;;;;;2.37;2.23;;;;;;;-0.49;73.23;94912.34;5041727;28;20214;-61
2021/12/13 02:45:48;;;;;;;2.60;2.40;;;;;;;-0.39;73.04;94912.66;5038733;28;20232;-65
2021/12/13 02:48:19;;;;;;;2.40;2.20;;;;;;;-0.40;73.07;94922.16;5037908;28;20226;-65
2021/12/13 02:50:55;;;;;;;2.67;2.43;;;;;;;-0.48;73.61;94920.03;5041592;28;20284;-64
2021/12/13 02:53:33;;;;;;;2.93;2.57;;;;;;;-0.40;73.38;94916.16;5042239;28;20221;-61
2021/12/13 02:55:59;;;;;;;2.60;2.40;;;;;;;-0.46;73.20;94915.56;5035933;28;20261;-62
2021/12/13 02:58:28;;;;;;;2.47;2.27;;;;;;;-0.51;73.60;94917.63;5041903;28;20250;-62
2021/12/13 03:01:09;;;;;;;2.67;2.47;;;;;;;-0.45;73.87;94909.50;5039350;28;20222;-64
2021/12/13 03:03:39;;;;;;;2.90;2.70;;;;;;;-0.40;73.71;94916.16;5036370;28;20222;-63
2021/12/13 03:06:07;;;;;;;3.00;2.70;;;;;;;-0.39;73.35;94923.00;5038126;28;20248;-64
2021/12/13 03:08:43;;;;;;;2.70;2.50;;;;;;;-0.36;73.29;94918.47;5041128;28;20217;-64
2021/12/13 03:11:18;;;;;;;2.90;2.67;;;;;;;-0.35;73.06;94917.53;5055284;28;20281;-61
2021/12/13 03:13:45;;;;;;;3.03;2.83;;;;;;;-0.35;73.13;94917.53;5039123;28;20222;-65
2021/12/13 03:16:16;;;;;;;2.60;2.40;;;;;;;-0.40;73.37;94919.59;5038032;28;20274;-62
2021/12/13 03:19:17;;;;;;;2.63;2.43;;;;;;;-0.39;73.29;94933.34;5034695;28;20232;-63
2021/12/13 03:22:11;;;;;;;3.40;3.10;;;;;;;-0.38;74.12;94916.91;5053143;28;20221;-64
2021/12/13 03:24:36;;;;;;;3.60;3.30;;;;;;;-0.38;74.28;94927.22;5036425;28;20230;-64
2021/12/13 03:27:05;;;;;;;3.00;2.80;;;;;;;-0.36;73.82;94915.88;5038795;28;20282;-64
2021/12/13 03:29:39;;;;;;;3.10;2.80;;;;;;;-0.48;74.55;94925.19;5036478;28;20238;-64
2021/12/13 03:32:10;;;;;;;3.27;3.03;;;;;;;-0.45;74.51;94919.84;5035935;28;20197;-64
2021/12/13 03:34:38;;;;;;;3.70;3.40;;;;;;;-0.43;75.16;94927.47;5036416;28;20318;-64
2021/12/13 03:37:19;;;;;;;3.10;2.90;;;;;;;-0.40;74.98;94935.09;5036427;28;20225;-64
2021/12/13 03:39:53;;;;;;;3.47;3.17;;;;;;;-0.40;75.41;94929.91;5040384;28;20289;-65
2021/12/13 03:42:41;;;;;;;3.50;3.20;;;;;;;-0.48;75.83;94932.94;5038153;28;20233;-62
2021/12/13 03:45:21;;;;;;;3.33;3.03;;;;;;;-0.55;75.87;94913.53;5040603;28;20294;-61
2021/12/13 03:47:51;;;;;;;3.80;3.50;;;;;;;-0.42;75.77;94931.75;5038974;28;20221;-63
2021/12/13 03:50:21;;;;;;;3.70;3.40;;;;;;;-0.59;76.05;94912.03;5038288;28;20273;-62
2021/12/13 03:52:50;;;;;;;3.30;3.00;;;;;;;-0.50;76.19;94915.88;5034861;28;20248;-62
2021/12/13 03:55:19;;;;;;;3.57;3.27;;;;;;;-0.51;75.69;94927.94;5040606;28;20244;-62
2021/12/13 03:58:09;;;;;;;3.77;3.47;;;;;;;-0.63;76.50;94918.31;5036302;28;20230;-62
2021/12/13 04:01:00;;;;;;;3.97;3.67;;;;;;;-0.63;76.64;94920.06;5036767;28;20230;-61
2021/12/13 04:03:27;;;;;;;3.60;3.30;;;;;;;-0.63;76.68;94925.22;5052301;28;20237;-62
2021/12/13 04:05:54;;;;;;;4.10;3.70;;;;;;;-0.57;76.84;94924.88;5039346;28;20213;-66
2021/12/13 04:08:22;;;;;;;4.17;3.87;;;;;;;-0.47;76.76;94919.09;5035239;28;20222;-63
2021/12/13 04:10:52;;;;;;;3.70;3.40;;;;;;;-0.54;76.72;94915.19;5032818;28;20223;-62
2021/12/13 04:13:23;;;;;;;4.50;4.10;;;;;;;-0.55;76.88;94921.28;5038186;28;20289;-62
2021/12/13 04:16:14;;;;;;;4.07;3.77;;;;;;;-0.62;76.98;94921.72;5035400;28;20221;-62
2021/12/13 04:21:21;;;;;;;4.23;3.90;;;;;;;-0.68;77.20;94925.47;5039913;28;20240;-62
2021/12/13 04:23:59;;;;;;;4.20;3.90;;;;;;;-0.70;77.79;94941.03;5039575;28;20226;-64
2021/12/13 04:26:29;;;;;;;4.63;4.23;;;;;;;-0.65;78.05;94938.22;5032400;28;20206;-63
2021/12/13 04:28:59;;;;;;;4.47;4.07;;;;;;;-0.67;77.62;94933.16;5037627;28;20210;-63
2021/12/13 04:31:30;;;;;;;3.87;3.57;;;;;;;-0.63;77.89;94944.13;5038532;28;20256;-62
2021/12/13 04:34:02;;;;;;;5.00;4.60;;;;;;;-0.64;77.52;94944.19;5036890;28;20286;-63
2021/12/13 04:36:56;;;;;;;4.47;4.17;;;;;;;-0.64;78.14;94957.09;5036571;28;20259;-62
2021/12/13 04:39:28;;;;;;;4.57;4.17;;;;;;;-0.62;78.39;94957.88;5037460;28;20241;-62
2021/12/13 04:42:06;;;;;;;4.53;4.13;;;;;;;-0.58;78.29;94951.63;5034767;28;20293;-66
2021/12/13 04:44:38;;;;;;;4.87;4.47;;;;;;;-0.59;78.07;94958.50;5036001;28;20209;-62
2021/12/13 04:47:17;;;;;;;5.03;4.63;;;;;;;-0.66;77.98;94967.53;5036604;28;20198;-62
2021/12/13 04:49:46;;;;;;;5.67;5.27;;;;;;;-0.67;78.66;94960.69;5037616;28;20229;-63
2021/12/13 04:52:16;;;;;;;5.47;5.03;;;;;;;-0.75;78.92;94949.97;5037110;28;20221;-62
2021/12/13 04:54:47;;;;;;;5.63;5.13;;;;;;;-0.65;79.22;94961.44;5041315;28;20223;-62
2021/12/13 04:57:13;;;;;;;5.67;5.20;;;;;;;-0.56;78.96;94967.84;5041127;28;20230;-62
2021/12/13 04:59:39;;;;;;;5.60;5.13;;;;;;;-0.59;78.97;94961.09;5038947;28;20210;-63
2021/12/13 05:02:11;;;;;;;5.40;5.00;;;;;;;-0.61;78.70;94962.97;5037889;28;20229;-63
2021/12/13 05:04:37;;;;;;;5.80;5.30;;;;;;;-0.65;78.38;94968.38;5039928;28;20245;-64
2021/12/13 05:07:05;;;;;;;6.30;5.67;;;;;;;-0.69;78.83;94967.72;5036854;28;20244;-63
2021/12/13 05:09:32;;;;;;;5.20;4.80;;;;;;;-0.71;78.64;94974.72;5032499;28;20241;-62
2021/12/13 05:12:13;;;;;;;5.80;5.30;;;;;;;-0.65;78.38;94971.78;5040422;28;20280;-62
2021/12/13 05:14:54;;;;;;;5.33;4.83;;;;;;;-0.73;78.70;94961.03;5037623;28;20288;-63
2021/12/13 05:17:24;;;;;;;6.10;5.30;;;;;;;-0.68;78.20;94969.38;5034526;28;20240;-62
2021/12/13 05:20:14;;;;;;;4.97;4.57;;;;;;;-0.66;77.80;94975.28;5034953;28;20223;-62
2021/12/13 05:23:06;;;;;;;5.47;5.07;;;;;;;-0.70;78.08;94969.44;5033480;28;20304;-65
2021/12/13 05:25:45;;;;;;;5.57;5.00;;;;;;;-0.63;77.95;94979.44;5033705;28;20226;-61
2021/12/13 05:28:15;;;;;;;5.83;5.33;;;;;;;-0.53;77.89;94988.34;5034675;28;20257;-62
2021/12/13 05:30:49;;;;;;;6.23;5.67;;;;;;;-0.59;77.75;94978.34;5041054;28;20234;-62
2021/12/13 05:33:18;;;;;;;5.43;5.03;;;;;;;-0.56;77.00;94975.59;5040336;28;20217;-62
2021/12/13 05:35:48;;;;;;;5.37;4.97;;;;;;;-0.64;77.12;94967.44;5035216;28;20230;-64
2021/12/13 05:38:32;;;;;;;5.13;4.63;;;;;;;-0.61;77.28;94993.94;5034517;28;20281;-65
2021/12/13 05:41:00;;;;;;;5.70;5.20;;;;;;;-0.53;77.32;94996.09;5038193;28;20218;-62
2021/12/13 05:43:34;;;;;;;5.23;4.73;;;;;;;-0.52;76.84;94990.84;5032372;28;20214;-62
2021/12/13 05:46:15;;;;;;;5.13;4.73;;;;;;;-0.55;76.70;94991.00;5036892;28;20272;-61
2021/12/13 05:48:54;;;;;;;5.10;4.70;;;;;;;-0.51;76.57;94982.19;5035967;28;20226;-62
2021/12/13 05:51:31;;;;;;;5.33;4.90;;;;;;;-0.47;76.33;94999.16;5029806;28;20249;-61
2021/12/13 05:54:06;;;;;;;5.80;5.33;;;;;;;-0.48;76.08;95001.84;5029259;28;20237;-63
2021/12/13 05:56:42;;;;;;;5.70;5.10;;;;;;;-0.50;76.74;94998.50;5036403;28;20304;-62
2021/12/13 05:59:14;;;;;;;6.17;5.33;;;;;;;-0.48;76.55;95013.00;5033059;28;20224;-63
2021/12/13 06:01:58;;;;;;;6.97;4.90;;;;;;;-0.61;76.70;95009.44;5032737;28;20254;-62
2021/12/13 06:04:35;;;;;;;5.43;4.93;;;;;;;-0.49;77.25;95010.50;5035416;28;20226;-62
2021/12/13 06:07:10;;;;;;;5.93;5.33;;;;;;;-0.35;76.30;95020.88;5035488;28;20222;-62
2021/12/13 06:09:44;;;;;;;5.10;4.70;;;;;;;-0.42;76.43;95026.50;5032083;28;20221;-64
2021/12/13 06:12:23;;;;;;;5.07;4.67;;;;;;;-0.48;76.60;95027.69;5031599;28;20293;-65
2021/12/13 06:14:50;;;;;;;5.60;5.10;;;;;;;-0.36;76.85;95036.50;5033817;28;20226;-66
2021/12/13 06:17:34;;;;;;;6.13;5.60;;;;;;;-0.56;77.59;95022.06;5033824;28;20206;-65
2021/12/13 06:20:08;;;;;;;5.47;4.97;;;;;;;-0.45;77.98;95032.69;5036071;28;20214;-65
2021/12/13 06:22:35;;;;;;;5.60;5.10;;;;;;;-0.43;77.51;95030.00;5028442;28;20245;-64
2021/12/13 06:25:08;;;;;;;5.80;5.30;;;;;;;-0.43;77.71;95030.81;5036614;28;20226;-63
2021/12/13 06:27:45;;;;;;;6.00;5.13;;;;;;;-0.42;77.48;95034.25;5033250;28;20229;-65
2021/12/13 06:30:26;;;;;;;5.90;5.40;;;;;;;-0.47;77.95;95035.34;5037475;28;20235;-64
2021/12/13 06:33:00;;;;;;;6.23;5.63;;;;;;;-0.45;78.23;95033.50;5030992;28;20293;-63
2021/12/13 06:35:47;;;;;;;5.93;5.43;;;;;;;-0.47;78.57;95040.50;5033678;28;20225;-64
2021/12/13 06:38:51;;;;;;;5.93;5.43;;;;;;;-0.40;77.92;95040.16;5033913;28;20546;-62
2021/12/13 06:41:28;;;;;;;6.60;6.00;;;;;;;-0.46;78.20;95041.31;5016915;28;20221;-62
2021/12/13 06:43:56;;;;;;;6.13;5.63;;;;;;;-0.41;78.31;95049.66;5016273;28;20244;-64
2021/12/13 06:46:24;;;;;;;6.33;5.73;;;;;;;-0.43;78.16;95055.81;5000235;28;20229;-66
2021/12/13 06:49:05;;;;;;;6.20;5.70;;;;;;;-0.43;78.16;95058.41;4998657;28;20237;-64
2021/12/13 06:51:58;;;;;;;5.70;5.20;;;;;;;-0.39;78.19;95059.91;5018126;28;20227;-62
2021/12/13 06:54:39;;;;;;;5.73;5.17;;;;;;;-0.35;77.89;95059.63;5014669;28;20223;-63
2021/12/13 06:57:12;;;;;;;6.17;5.60;;;;;;;-0.37;77.65;95058.91;5017678;28;20229;-62
2021/12/13 06:59:49;;;;;;;5.63;5.13;;;;;;;-0.37;78.05;95060.69;5015675;28;20223;-64
2021/12/13 07:02:40;;;;;;;6.10;5.10;;;;;;;-0.31;77.79;95055.16;5017661;28;20229;-62
2021/12/13 07:05:09;;;;;;;5.80;5.30;;;;;;;-0.31;77.65;95070.66;4995618;28;20506;-63
2021/12/13 07:07:48;;;;;;;5.77;5.27;;;;;;;-0.34;77.52;95068.25;4996357;28;20245;-64
2021/12/13 07:10:24;;;;;;;5.33;4.83;;;;;;;-0.30;77.06;95069.72;5019673;28;20333;-62
2021/12/13 07:12:54;;;;;;;6.03;5.47;;;;;;;-0.15;77.33;95065.47;5015705;28;20232;-64
2021/12/13 07:15:34;;;;;;;6.03;5.53;;;;;;;-0.17;77.32;95068.13;5014562;28;20305;-63
2021/12/13 07:18:01;;;;;;;6.07;5.50;;;;;;;-0.18;77.39;95071.66;5012803;28;20234;-63
2021/12/13 07:20:36;;;;;;;5.97;5.40;;;;;;;-0.11;77.35;95070.38;5036103;28;20317;-64
2021/12/13 07:23:02;;;;;;;5.17;4.67;;;;;;;-0.21;77.27;95069.25;5031464;28;20446;-64
2021/12/13 07:25:36;;;;;;;6.03;5.43;;;;;;;-0.17;77.55;95069.88;5030321;28;20226;-63
2021/12/13 07:28:03;;;;;;;6.17;5.67;;;;;;;-0.23;77.51;95077.06;5036798;28;20229;-64
2021/12/13 07:30:31;;;;;;;5.63;5.13;;;;;;;-0.17;77.42;95062.13;5038275;28;20232;-62
2021/12/13 07:33:01;;;;;;;5.90;5.30;;;;;;;-0.11;77.71;95072.94;5035796;28;20241;-62
2021/12/13 07:35:36;;;;;;;5.67;5.17;;;;;;;-0.11;77.52;95082.47;5038311;28;20215;-63
2021/12/13 07:38:02;;;;;;;5.87;5.37;;;;;;;-0.07;77.42;95084.78;5039480;28;20218;-63
2021/12/13 07:40:36;;;;;;;5.20;4.80;;;;;;;-0.12;77.18;95084.22;5035407;28;20239;-63
2021/12/13 07:43:20;;;;;;;6.27;5.70;;;;;;;-0.06;77.15;95089.03;5035209;28;20236;-65
2021/12/13 07:45:49;;;;;;;6.73;5.73;;;;;;;-0.03;77.14;95090.63;5036464;28;20210;-64
2021/12/13 07:48:24;;;;;;;6.40;5.80;;;;;;;-0.05;76.93;95095.88;5034302;28;20229;-64
2021/12/13 07:51:26;;;;;;;5.90;5.40;;;;;;;-0.07;76.45;95100.31;5036291;28;20241;-64
2021/12/13 07:53:58;;;;;;;6.90;6.30;;;;;;;-0.06;76.58;95095.97;5037474;28;20206;-64
2021/12/13 07:56:36;;;;;;;6.90;6.30;;;;;;;0.03;76.32;95094.59;5042396;28;20209;-63
2021/12/13 07:59:26;;;;;;;5.73;5.20;;;;;;;-0.07;76.27;95094.31;5031758;28;20257;-63
2021/12/13 08:02:01;;;;;;;6.40;5.80;;;;;;;0.02;76.39;95098.13;5043420;28;20234;-62
2021/12/13 08:04:51;;;;;;;5.97;5.37;;;;;;;-0.01;76.64;95088.78;5037332;28;20243;-62
2021/12/13 08:07:21;;;;;;;6.80;6.13;;;;;;;0.14;76.04;95087.09;5038011;28;20214;-63
2021/12/13 08:09:50;;;;;;;5.43;4.93;;;;;;;0.01;75.96;95094.72;5035091;28;20214;-63
2021/12/13 08:12:15;;;;;;;6.50;5.77;;;;;;;0.03;76.09;95095.47;5031801;28;20221;-64
2021/12/13 08:14:43;;;;;;;8.07;6.03;;;;;;;0.10;75.94;95107.09;5040274;28;20214;-62
2021/12/13 08:17:17;;;;;;;5.43;4.93;;;;;;;0.04;76.02;95104.03;5035936;28;20271;-62
2021/12/13 08:19:50;;;;;;;6.20;5.57;;;;;;;0.10;75.66;95107.09;5039093;28;20296;-63
2021/12/13 08:22:18;;;;;;;5.77;5.20;;;;;;;0.08;75.52;95110.69;5038612;28;20256;-63
2021/12/13 08:24:47;;;;;;;6.13;5.53;;;;;;;0.07;75.83;95107.28;5036159;28;20241;-64
2021/12/13 08:27:16;;;;;;;5.67;5.17;;;;;;;0.09;75.25;95107.22;5035421;28;20307;-63
2021/12/13 08:29:43;;;;;;;5.57;5.07;;;;;;;0.18;75.00;95109.25;5037336;28;20229;-63
2021/12/13 08:32:16;;;;;;;5.43;4.93;;;;;;;0.21;74.66;95098.75;5033392;28;20202;-61
2021/12/13 08:34:51;;;;;;;5.07;4.40;;;;;;;0.30;74.25;95107.75;5031204;28;20230;-63
2021/12/13 08:37:19;;;;;;;5.80;5.20;;;;;;;0.19;74.74;95105.78;5036642;28;20217;-64
2021/12/13 08:39:47;;;;;;;5.70;5.20;;;;;;;0.16;74.79;95114.53;5037162;28;20228;-64
2021/12/13 08:42:17;;;;;;;4.73;4.33;;;;;;;0.10;74.44;95106.28;5035187;28;20475;-64
2021/12/13 08:44:56;;;;;;;5.03;4.63;;;;;;;0.03;74.69;95107.53;5040426;28;20221;-64
2021/12/13 08:47:34;;;;;;;5.40;5.00;;;;;;;0.09;74.56;95110.63;5035712;28;20317;-63
2021/12/13 08:50:08;;;;;;;5.43;4.93;;;;;;;0.14;74.48;95107.78;5037223;28;20303;-63
2021/12/13 08:52:38;;;;;;;5.27;4.77;;;;;;;0.07;74.82;95111.63;5031811;28;20305;-62
2021/12/13 08:55:04;;;;;;;5.77;5.23;;;;;;;0.11;75.15;95102.78;5035320;28;20225;-63
2021/12/13 08:57:44;;;;;;;5.43;4.93;;;;;;;0.23;74.44;95104.66;5037524;28;20267;-63
2021/12/13 09:00:13;;;;;;;4.80;4.33;;;;;;;0.20;73.98;95108.25;5039097;28;20230;-62
2021/12/13 09:02:46;;;;;;;4.90;4.50;;;;;;;0.23;74.20;95109.84;5037013;28;20301;-63
2021/12/13 09:05:22;;;;;;;6.27;5.67;;;;;;;0.18;74.40;95117.84;5036159;28;20210;-66
2021/12/13 09:07:58;;;;;;;6.27;5.67;;;;;;;0.25;74.13;95114.94;5032991;28;20224;-62
2021/12/13 09:10:46;;;;;;;5.90;5.10;;;;;;;0.41;73.34;95110.56;5040318;28;20225;-65
2021/12/13 09:13:14;;;;;;;5.77;5.27;;;;;;;0.23;74.03;95112.44;5038188;28;20237;-63
2021/12/13 09:15:41;;;;;;;6.77;6.07;;;;;;;0.26;73.80;95117.41;5036820;28;20228;-65
2021/12/13 09:18:08;;;;;;;6.23;5.63;;;;;;;0.36;74.25;95108.22;5032338;28;20234;-65
2021/12/13 09:20:48;;;;;;;6.30;5.80;;;;;;;0.30;73.72;95098.22;5038046;28;20229;-65
2021/12/13 09:23:21;;;;;;;5.33;4.83;;;;;;;0.51;73.50;95105.66;5036003;28;20210;-64
2021/12/13 09:25:51;;;;;;;6.37;5.73;;;;;;;0.52;73.00;95097.00;5030972;28;20252;-64
2021/12/13 09:28:22;;;;;;;6.20;5.70;;;;;;;0.38;73.35;95093.44;5037630;28;20225;-62
2021/12/13 09:30:56;;;;;;;6.30;5.70;;;;;;;0.41;73.42;95101.03;5037150;28;20214;-64
2021/12/13 09:33:28;;;;;;;7.10;5.50;;;;;;;0.50;73.61;95099.66;5036689;28;20224;-63
2021/12/13 09:35:57;;;;;;;6.53;5.80;;;;;;;0.49;73.47;95103.19;5037150;28;20347;-65
2021/12/13 09:38:31;;;;;;;6.13;5.60;;;;;;;0.41;74.07;95095.84;5038643;28;20222;-67
2021/12/13 09:40:59;;;;;;;5.80;5.20;;;;;;;0.53;73.21;95102.06;5035139;28;20214;-64
2021/12/13 09:43:36;;;;;;;6.00;5.40;;;;;;;0.40;73.59;95088.16;5032519;28;20337;-62
2021/12/13 09:46:03;;;;;;;5.73;5.23;;;;;;;0.39;73.88;95091.69;5034302;28;20222;-64
2021/12/13 09:48:34;;;;;;;5.10;4.70;;;;;;;0.37;74.10;95093.53;5038198;28;20222;-63
2021/12/13 09:51:06;;;;;;;5.57;5.07;;;;;;;0.25;74.02;95100.25;5034533;28;20218;-62
2021/12/13 09:53:35;;;;;;;5.30;4.80;;;;;;;0.37;74.09;95094.34;5036182;28;20210;-63
2021/12/13 09:56:06;;;;;;;5.37;4.97;;;;;;;0.33;74.04;95087.72;5035999;28;20285;-64
2021/12/13 09:58:37;;;;;;;6.50;5.07;;;;;;;0.52;74.33;95086.66;5031637;28;20225;-65
2021/12/13 10:01:13;;;;;;;6.27;5.67;;;;;;;0.63;73.80;95079.91;5033918;28;20230;-63
2021/12/13 10:03:51;;;;;;;6.03;5.53;;;;;;;0.79;73.08;95089.38;5038759;28;20213;-63
2021/12/13 10:06:29;;;;;;;5.87;5.27;;;;;;;0.67;72.83;95096.09;5032269;28;20253;-62
2021/12/13 10:09:16;;;;;;;5.40;4.90;;;;;;;0.62;73.39;95091.19;5029362;28;20256;-65
2021/12/13 10:12:02;;;;;;;4.97;4.50;;;;;;;0.66;72.90;95094.41;5041939;28;20285;-64
2021/12/13 10:14:36;;;;;;;5.43;5.03;;;;;;;0.58;72.49;95081.09;5035409;28;20233;-64
2021/12/13 10:17:04;;;;;;;6.43;5.00;;;;;;;0.64;72.80;95083.31;5036915;28;20206;-62
2021/12/13 10:19:41;;;;;;;5.43;4.93;;;;;;;0.71;72.37;95088.97;5038741;28;20226;-62
2021/12/13 10:22:09;;;;;;;5.60;5.10;;;;;;;0.57;72.59;95075.09;5038024;28;20221;-63
2021/12/13 10:24:39;;;;;;;5.13;4.70;;;;;;;0.78;72.32;95079.94;5036753;28;20273;-64
2021/12/13 10:27:08;;;;;;;5.30;4.80;;;;;;;0.97;71.35;95058.97;5036768;28;20226;-65
2021/12/13 10:29:35;;;;;;;5.07;4.67;;;;;;;0.79;72.07;95069.47;5040415;28;20277;-66
2021/12/13 10:32:10;;;;;;;5.50;5.00;;;;;;;0.84;71.87;95067.47;5035416;28;20206;-63
2021/12/13 10:34:39;;;;;;;5.00;4.60;;;;;;;0.98;71.61;95081.31;5049188;28;20363;-66
2021/12/13 10:40:08;;;;;;;5.47;4.97;;;;;;;0.89;71.24;95064.59;5037429;28;20224;-63
2021/12/13 10:42:39;;;;;;;5.27;4.80;;;;;;;0.88;71.22;95058.59;5037367;28;20225;-67
2021/12/13 10:45:16;;;;;;;5.77;5.27;;;;;;;0.83;71.51;95070.16;5037688;28;20229;-64
2021/12/13 10:47:44;;;;;;;5.43;4.93;;;;;;;0.96;71.13;95062.47;5036985;28;20278;-63
2021/12/13 10:50:15;;;;;;;5.40;5.00;;;;;;;0.98;71.32;95071.81;5034209;28;20207;-64
2021/12/13 10:52:48;;;;;;;5.40;4.90;;;;;;;0.96;71.08;95052.94;5031246;28;20232;-62
2021/12/13 10:55:25;;;;;;;5.80;5.30;;;;;;;1.05;70.96;95061.91;5036624;28;20226;-63
2021/12/13 10:57:52;;;;;;;5.47;4.93;;;;;;;1.02;71.06;95062.94;5034266;28;20256;-64
2021/12/13 11:00:22;;;;;;;5.47;4.97;;;;;;;0.93;70.87;95060.88;5036482;28;20225;-63
2021/12/13 11:02:56;;;;;;;5.20;4.73;;;;;;;0.81;70.81;95052.13;5037606;28;20355;-62
2021/12/13 11:05:24;;;;;;;5.30;4.80;;;;;;;1.00;71.06;95059.59;5041282;28;20202;-62
2021/12/13 11:07:51;;;;;;;5.63;5.13;;;;;;;0.99;71.34;95064.84;5032968;28;20221;-63
2021/12/13 11:10:22;;;;;;;5.57;5.07;;;;;;;1.03;70.66;95056.00;5039229;28;20233;-63
2021/12/13 11:12:53;;;;;;;6.07;5.53;;;;;;;1.02;70.78;95057.75;5038125;28;20218;-63
2021/12/13 11:15:27;;;;;;;5.77;5.27;;;;;;;1.03;71.22;95050.81;5034792;28;20217;-61
2021/12/13 11:17:55;;;;;;;5.73;5.23;;;;;;;1.00;70.95;95058.78;5035709;28;20233;-69
2021/12/13 11:20:43;;;;;;;5.37;4.87;;;;;;;1.01;71.20;95061.25;5036660;28;20208;-66
2021/12/13 11:23:10;;;;;;;5.27;4.80;;;;;;;1.01;71.40;95060.44;5035006;28;20234;-63
2021/12/13 11:25:41;;;;;;;6.20;5.60;;;;;;;1.06;71.51;95048.03;5034857;28;20278;-64
2021/12/13 11:28:08;;;;;;;6.70;5.67;;;;;;;1.02;71.07;95055.16;5037622;28;20232;-64
2021/12/13 11:30:36;;;;;;;6.13;5.57;;;;;;;1.05;71.01;95048.97;5036347;28;20240;-66
2021/12/13 11:33:19;;;;;;;6.07;5.50;;;;;;;1.19;71.34;95055.88;5034527;28;20256;-65
2021/12/13 11:36:06;;;;;;;6.33;5.73;;;;;;;1.13;71.05;95059.69;5032889;28;20265;-63
2021/12/13 11:39:03;;;;;;;6.20;5.60;;;;;;;1.04;71.10;95058.50;5039483;28;20225;-65
2021/12/13 11:41:35;;;;;;;5.80;5.27;;;;;;;1.04;71.22;95055.06;5037837;28;20249;-63
2021/12/13 11:44:26;;;;;;;5.87;5.37;;;;;;;1.09;71.17;95064.22;5032693;28;20217;-65
2021/12/13 11:47:30;;;;;;;5.80;5.30;;;;;;;1.03;71.60;95063.75;5027146;28;20271;-64
2021/12/13 11:50:32;;;;;;;5.97;5.13;;;;;;;1.06;70.97;95060.97;5039717;28;20218;-64
2021/12/13 11:53:43;;;;;;;7.20;6.50;;;;;;;1.19;70.95;95067.09;5040342;28;20262;-63
2021/12/13 11:56:40;;;;;;;7.67;6.80;;;;;;;1.17;71.26;95062.91;5036622;28;20218;-63
2021/12/13 11:59:43;;;;;;;7.10;6.43;;;;;;;1.26;71.16;95057.19;5041214;28;20306;-62
2021/12/13 12:02:26;;;;;;;7.93;7.13;;;;;;;1.37;71.39;95054.75;5035433;28;20249;-62
2021/12/13 12:05:38;;;;;;;7.20;6.50;;;;;;;1.42;70.82;95057.91;5036507;28;20236;-62
2021/12/13 12:08:41;;;;;;;6.80;6.20;;;;;;;1.37;70.92;95059.13;5051097;28;20293;-62
2021/12/13 12:11:44;;;;;;;7.70;7.00;;;;;;;1.47;70.46;95062.78;5040672;28;20214;-62
2021/12/13 12:14:12;;;;;;;8.50;7.60;;;;;;;1.46;71.01;95063.72;5030908;28;20229;-63
2021/12/13 12:16:50;;;;;;;8.37;7.60;;;;;;;1.58;70.13;95062.09;5037348;28;20229;-63
2021/12/13 12:19:40;;;;;;;7.83;7.13;;;;;;;1.40;70.67;95064.94;5034639;28;20289;-64
2021/12/13 12:22:10;;;;;;;7.13;6.50;;;;;;;1.50;70.37;95062.63;5038901;28;20237;-64
2021/12/13 12:24:39;;;;;;;7.43;6.73;;;;;;;1.41;70.77;95066.59;5047828;28;20226;-65